createdAt,value
2018-04-14T00:00:44.435Z,998.24
2018-04-14T00:01:50.675Z,998.21
2018-04-14T00:02:56.383Z,998.20
2018-04-14T00:04:03.100Z,998.18
2018-04-14T00:05:09.387Z,998.18
2018-04-14T00:06:15.056Z,998.23
2018-04-14T00:07:21.411Z,998.21
2018-04-14T00:08:27.505Z,998.18
2018-04-14T00:09:34.211Z,998.21
2018-04-14T00:10:39.931Z,998.25
2018-04-14T00:11:46.189Z,998.21
2018-04-14T00:12:52.886Z,998.21
2018-04-14T00:13:58.591Z,998.22
2018-04-14T00:15:04.833Z,998.17
2018-04-14T00:16:11.545Z,998.12
2018-04-14T00:17:17.289Z,998.17
2018-04-14T00:18:23.483Z,998.18
2018-04-14T00:19:29.700Z,998.15
2018-04-14T00:20:35.910Z,998.11
2018-04-14T00:21:42.661Z,998.09
2018-04-14T00:22:48.861Z,998.09
2018-04-14T00:23:55.057Z,998.13
2018-04-14T00:25:00.788Z,998.16
2018-04-14T00:26:07.484Z,998.19
2018-04-14T00:27:13.244Z,998.21
2018-04-14T00:28:19.908Z,998.22
2018-04-14T00:29:26.139Z,998.27
2018-04-14T00:30:32.341Z,998.35
2018-04-14T00:31:38.049Z,998.38
2018-04-14T00:32:44.286Z,998.37
2018-04-14T00:33:50.961Z,998.37
2018-04-14T00:34:57.179Z,998.40
2018-04-14T00:36:03.392Z,998.37
2018-04-14T00:37:09.110Z,998.38
2018-04-14T00:38:15.399Z,998.34
2018-04-14T00:39:21.502Z,998.35
2018-04-14T00:40:27.707Z,998.34
2018-04-14T00:41:34.403Z,998.33
2018-04-14T00:42:41.626Z,998.30
2018-04-14T00:43:46.323Z,998.33
2018-04-14T00:44:53.019Z,998.30
2018-04-14T00:45:59.231Z,998.29
2018-04-14T00:47:05.458Z,998.31
2018-04-14T00:48:11.632Z,998.31
2018-04-14T00:49:17.825Z,998.29
2018-04-14T00:50:24.039Z,998.34
2018-04-14T00:51:30.227Z,998.33
2018-04-14T00:52:35.971Z,998.33
2018-04-14T00:53:42.135Z,998.30
2018-04-14T00:54:48.842Z,998.30
2018-04-14T00:55:54.543Z,998.32
2018-04-14T00:57:00.766Z,998.33
2018-04-14T00:58:07.448Z,998.39
2018-04-14T00:59:13.652Z,998.36
2018-04-14T01:00:19.342Z,998.44
2018-04-14T01:01:26.044Z,998.40
2018-04-14T01:02:31.766Z,998.46
2018-04-14T01:03:37.964Z,998.46
2018-04-14T01:04:44.148Z,998.45
2018-04-14T01:05:50.339Z,998.49
2018-04-14T01:06:56.770Z,998.47
2018-04-14T01:08:03.237Z,998.47
2018-04-14T01:09:09.422Z,998.45
2018-04-14T01:10:15.620Z,998.48
2018-04-14T01:11:21.319Z,998.46
2018-04-14T01:12:27.537Z,998.47
2018-04-14T01:13:33.758Z,998.53
2018-04-14T01:14:40.392Z,998.52
2018-04-14T01:15:46.102Z,998.53
2018-04-14T01:16:52.827Z,998.52
2018-04-14T01:17:58.515Z,998.53
2018-04-14T01:19:04.676Z,998.54
2018-04-14T01:20:10.882Z,998.52
2018-04-14T01:21:17.088Z,998.51
2018-04-14T01:22:23.282Z,998.53
2018-04-14T01:23:29.458Z,998.51
2018-04-14T01:24:35.652Z,998.55
2018-04-14T01:25:41.853Z,998.54
2018-04-14T01:26:48.055Z,998.51
2018-04-14T01:27:54.266Z,998.54
2018-04-14T01:29:00.436Z,998.55
2018-04-14T01:30:06.638Z,998.59
2018-04-14T01:31:12.830Z,998.55
2018-04-14T01:32:19.538Z,998.54
2018-04-14T01:33:26.406Z,998.52
2018-04-14T01:34:31.922Z,998.52
2018-04-14T01:35:37.620Z,998.56
2018-04-14T01:36:43.820Z,998.58
2018-04-14T01:37:50.030Z,998.53
2018-04-14T01:38:56.221Z,998.57
2018-04-14T01:40:02.904Z,998.54
2018-04-14T01:41:09.089Z,998.58
2018-04-14T01:42:14.813Z,998.59
2018-04-14T01:43:21.492Z,998.57
2018-04-14T01:44:27.187Z,998.57
2018-04-14T01:45:33.880Z,998.57
2018-04-14T01:46:39.591Z,998.60
2018-04-14T01:47:46.299Z,998.60
2018-04-14T01:48:51.973Z,998.61
2018-04-14T01:49:58.667Z,998.60
2018-04-14T01:51:04.364Z,998.59
2018-04-14T01:52:11.075Z,998.57
2018-04-14T01:53:17.253Z,998.56
2018-04-14T01:54:22.939Z,998.53
2018-04-14T01:55:29.143Z,998.50
2018-04-14T01:56:35.331Z,998.50
2018-04-14T01:57:41.541Z,998.59
2018-04-14T01:58:48.210Z,998.64
2018-04-14T01:59:53.902Z,998.60
2018-04-14T02:01:00.593Z,998.61
2018-04-14T02:02:06.797Z,998.60
2018-04-14T02:03:12.979Z,998.58
2018-04-14T02:04:19.172Z,998.55
2018-04-14T02:05:24.850Z,998.61
2018-04-14T02:06:31.533Z,998.58
2018-04-14T02:07:37.748Z,998.57
2018-04-14T02:08:43.918Z,998.60
2018-04-14T02:09:50.097Z,998.61
2018-04-14T02:10:56.294Z,998.58
2018-04-14T02:12:02.526Z,998.60
2018-04-14T02:13:08.695Z,998.60
2018-04-14T02:14:14.858Z,998.59
2018-04-14T02:15:21.055Z,998.62
2018-04-14T02:16:27.221Z,998.64
2018-04-14T02:17:33.460Z,998.65
2018-04-14T02:18:39.578Z,998.65
2018-04-14T02:19:45.757Z,998.63
2018-04-14T02:20:51.961Z,998.64
2018-04-14T02:21:58.115Z,998.59
2018-04-14T02:23:04.329Z,998.61
2018-04-14T02:24:09.976Z,998.63
2018-04-14T02:25:16.648Z,998.69
2018-04-14T02:26:22.826Z,998.68
2018-04-14T02:27:29.024Z,998.72
2018-04-14T02:28:35.174Z,998.78
2018-04-14T02:29:41.329Z,998.77
2018-04-14T02:30:47.494Z,998.83
2018-04-14T02:31:53.656Z,998.86
2018-04-14T02:32:59.851Z,998.86
2018-04-14T02:34:05.986Z,998.85
2018-04-14T02:35:11.650Z,998.89
2018-04-14T02:36:18.295Z,998.88
2018-04-14T02:37:23.996Z,998.88
2018-04-14T02:38:30.627Z,998.90
2018-04-14T02:39:36.291Z,998.84
2018-04-14T02:40:42.952Z,998.81
2018-04-14T02:41:49.096Z,998.87
2018-04-14T02:42:55.288Z,998.83
2018-04-14T02:44:00.928Z,998.89
2018-04-14T02:45:07.581Z,998.87
2018-04-14T02:46:13.246Z,998.94
2018-04-14T02:47:19.417Z,998.91
2018-04-14T02:48:26.055Z,998.91
2018-04-14T02:49:32.224Z,998.88
2018-04-14T02:50:38.000Z,998.84
2018-04-14T02:51:44.552Z,998.84
2018-04-14T02:52:50.722Z,998.82
2018-04-14T02:53:56.851Z,998.86
2018-04-14T02:55:03.012Z,998.89
2018-04-14T02:56:08.700Z,998.85
2018-04-14T02:57:14.843Z,998.88
2018-04-14T02:58:21.531Z,998.88
2018-04-14T02:59:27.710Z,998.88
2018-04-14T03:00:33.833Z,998.86
2018-04-14T03:01:39.494Z,998.91
2018-04-14T03:02:45.674Z,998.87
2018-04-14T03:03:51.813Z,998.95
2018-04-14T03:04:58.480Z,998.98
2018-04-14T03:06:04.637Z,998.95
2018-04-14T03:07:10.818Z,999.01
2018-04-14T03:08:16.987Z,999.03
2018-04-14T03:09:23.624Z,999.07
2018-04-14T03:10:28.793Z,999.10
2018-04-14T03:11:35.464Z,999.09
2018-04-14T03:12:41.146Z,999.03
2018-04-14T03:13:47.376Z,999.07
2018-04-14T03:14:53.436Z,999.06
2018-04-14T03:16:00.099Z,999.02
2018-04-14T03:17:06.271Z,999.05
2018-04-14T03:18:12.449Z,998.99
2018-04-14T03:19:18.087Z,999.05
2018-04-14T03:20:24.780Z,999.03
2018-04-14T03:21:30.918Z,999.05
2018-04-14T03:22:37.114Z,999.11
2018-04-14T03:23:42.748Z,999.03
2018-04-14T03:24:48.923Z,999.06
2018-04-14T03:25:55.588Z,999.04
2018-04-14T03:27:01.748Z,999.05
2018-04-14T03:28:07.919Z,999.13
2018-04-14T03:29:13.566Z,999.20
2018-04-14T03:30:19.742Z,999.11
2018-04-14T03:31:25.898Z,999.17
2018-04-14T03:32:32.081Z,999.12
2018-04-14T03:33:38.243Z,999.12
2018-04-14T03:34:44.395Z,999.11
2018-04-14T03:35:51.059Z,999.08
2018-04-14T03:36:57.218Z,999.07
2018-04-14T03:38:02.906Z,999.11
2018-04-14T03:39:09.540Z,999.08
2018-04-14T03:40:15.210Z,999.06
2018-04-14T03:41:21.374Z,999.10
2018-04-14T03:42:28.043Z,999.11
2018-04-14T03:43:33.737Z,999.09
2018-04-14T03:44:40.887Z,999.11
2018-04-14T03:45:46.042Z,999.14
2018-04-14T03:46:52.702Z,999.15
2018-04-14T03:47:58.395Z,999.20
2018-04-14T03:49:04.594Z,999.20
2018-04-14T03:50:10.715Z,999.24
2018-04-14T03:51:16.871Z,999.24
2018-04-14T03:52:23.044Z,999.27
2018-04-14T03:53:29.255Z,999.25
2018-04-14T03:54:35.871Z,999.23
2018-04-14T03:55:41.557Z,999.24
2018-04-14T03:56:47.725Z,999.21
2018-04-14T03:57:53.916Z,999.25
2018-04-14T03:59:00.068Z,999.29
2018-04-14T04:00:06.218Z,999.28
2018-04-14T04:01:12.393Z,999.27
2018-04-14T04:02:19.058Z,999.29
2018-04-14T04:03:25.254Z,999.28
2018-04-14T04:04:30.925Z,999.28
2018-04-14T04:05:37.587Z,999.29
2018-04-14T04:06:43.256Z,999.34
2018-04-14T04:07:49.466Z,999.31
2018-04-14T04:08:57.100Z,999.32
2018-04-14T04:10:01.779Z,999.39
2018-04-14T04:11:07.959Z,999.37
2018-04-14T04:12:14.632Z,999.39
2018-04-14T04:13:20.834Z,999.38
2018-04-14T04:14:26.997Z,999.36
2018-04-14T04:15:33.147Z,999.38
2018-04-14T04:16:39.380Z,999.37
2018-04-14T04:17:45.546Z,999.38
2018-04-14T04:18:51.666Z,999.41
2018-04-14T04:19:57.846Z,999.39
2018-04-14T04:21:04.021Z,999.41
2018-04-14T04:22:10.669Z,999.38
2018-04-14T04:23:16.434Z,999.39
2018-04-14T04:24:22.576Z,999.38
2018-04-14T04:25:28.721Z,999.42
2018-04-14T04:26:34.894Z,999.42
2018-04-14T04:27:41.107Z,999.42
2018-04-14T04:28:47.294Z,999.41
2018-04-14T04:29:53.426Z,999.41
2018-04-14T04:30:59.610Z,999.35
2018-04-14T04:32:06.781Z,999.33
2018-04-14T04:33:11.974Z,999.38
2018-04-14T04:34:18.133Z,999.44
2018-04-14T04:35:24.295Z,999.46
2018-04-14T04:36:30.493Z,999.51
2018-04-14T04:37:36.658Z,999.57
2018-04-14T04:38:42.841Z,999.55
2018-04-14T04:39:49.007Z,999.57
2018-04-14T04:40:55.175Z,999.57
2018-04-14T04:42:01.391Z,999.57
2018-04-14T04:43:07.764Z,999.56
2018-04-14T04:44:13.700Z,999.58
2018-04-14T04:45:19.372Z,999.61
2018-04-14T04:46:26.060Z,999.64
2018-04-14T04:47:32.239Z,999.69
2018-04-14T04:48:38.541Z,999.67
2018-04-14T04:49:44.573Z,999.75
2018-04-14T04:50:53.722Z,999.75
2018-04-14T04:51:56.936Z,999.77
2018-04-14T04:53:03.134Z,999.79
2018-04-14T04:54:09.389Z,999.79
2018-04-14T04:55:15.473Z,999.79
2018-04-14T04:56:21.658Z,999.77
2018-04-14T04:57:29.772Z,999.77
2018-04-14T04:58:34.075Z,999.78
2018-04-14T04:59:40.153Z,999.78
2018-04-14T05:00:46.340Z,999.82
2018-04-14T05:01:52.514Z,999.80
2018-04-14T05:02:58.686Z,999.82
2018-04-14T05:04:04.965Z,999.85
2018-04-14T05:05:11.049Z,999.88
2018-04-14T05:06:17.230Z,999.92
2018-04-14T05:07:23.545Z,999.94
2018-04-14T05:08:29.110Z,999.98
2018-04-14T05:09:35.919Z,999.96
2018-04-14T05:10:41.917Z,999.97
2018-04-14T05:11:48.095Z,999.98
2018-04-14T05:12:54.409Z,999.98
2018-04-14T05:14:00.490Z,1000.02
2018-04-14T05:15:06.666Z,1000.04
2018-04-14T05:16:12.801Z,1000.07
2018-04-14T05:17:18.991Z,1000.13
2018-04-14T05:18:25.198Z,1000.11
2018-04-14T05:19:31.487Z,1000.13
2018-04-14T05:20:37.570Z,1000.16
2018-04-14T05:21:43.716Z,1000.20
2018-04-14T05:22:49.909Z,1000.22
2018-04-14T05:23:56.114Z,1000.25
2018-04-14T05:25:02.278Z,1000.26
2018-04-14T05:26:08.454Z,1000.31
2018-04-14T05:27:14.661Z,1000.28
2018-04-14T05:28:20.867Z,1000.27
2018-04-14T05:29:26.544Z,1000.35
2018-04-14T05:30:33.234Z,1000.31
2018-04-14T05:31:39.420Z,1000.33
2018-04-14T05:32:45.615Z,1000.34
2018-04-14T05:33:51.854Z,1000.39
2018-04-14T05:34:57.513Z,1000.36
2018-04-14T05:36:04.196Z,1000.40
2018-04-14T05:37:10.382Z,1000.41
2018-04-14T05:38:17.611Z,1000.42
2018-04-14T05:39:22.783Z,1000.42
2018-04-14T05:40:28.978Z,1000.37
2018-04-14T05:41:35.182Z,1000.37
2018-04-14T05:42:41.390Z,1000.40
2018-04-14T05:43:47.604Z,1000.43
2018-04-14T05:44:53.787Z,1000.44
2018-04-14T05:46:00.001Z,1000.47
2018-04-14T05:47:06.224Z,1000.49
2018-04-14T05:48:12.432Z,1000.50
2018-04-14T05:49:19.923Z,1000.49
2018-04-14T05:50:24.836Z,1000.47
2018-04-14T05:51:31.033Z,1000.49
2018-04-14T05:52:37.242Z,1000.54
2018-04-14T05:53:43.501Z,1000.56
2018-04-14T05:54:49.658Z,1000.57
2018-04-14T05:55:55.880Z,1000.56
2018-04-14T05:57:02.095Z,1000.59
2018-04-14T05:58:08.298Z,1000.60
2018-04-14T05:59:14.562Z,1000.64
2018-04-14T06:00:20.767Z,1000.64
2018-04-14T06:01:26.959Z,1000.66
2018-04-14T06:02:33.183Z,1000.69
2018-04-14T06:03:39.434Z,1000.69
2018-04-14T06:04:45.626Z,1000.73
2018-04-14T06:05:51.844Z,1000.80
2018-04-14T06:06:58.061Z,1000.80
2018-04-14T06:08:04.286Z,1000.75
2018-04-14T06:09:10.520Z,1000.76
2018-04-14T06:10:16.727Z,1000.78
2018-04-14T06:11:22.944Z,1000.79
2018-04-14T06:12:29.162Z,1000.86
2018-04-14T06:13:35.906Z,1000.87
2018-04-14T06:14:41.622Z,1000.83
2018-04-14T06:15:47.833Z,1000.89
2018-04-14T06:16:54.200Z,1000.94
2018-04-14T06:18:00.298Z,1000.89
2018-04-14T06:19:06.546Z,1000.90
2018-04-14T06:20:12.735Z,1000.87
2018-04-14T06:21:18.969Z,1000.91
2018-04-14T06:22:25.190Z,1000.93
2018-04-14T06:23:31.420Z,1000.93
2018-04-14T06:24:37.620Z,1000.94
2018-04-14T06:25:43.849Z,1000.94
2018-04-14T06:26:50.074Z,1000.99
2018-04-14T06:27:58.249Z,1001.01
2018-04-14T06:29:02.549Z,1001.04
2018-04-14T06:30:08.231Z,1001.05
2018-04-14T06:31:14.961Z,1001.07
2018-04-14T06:32:21.187Z,1001.07
2018-04-14T06:33:28.420Z,1001.04
2018-04-14T06:34:33.622Z,1001.04
2018-04-14T06:35:39.868Z,1001.04
2018-04-14T06:36:46.087Z,1001.07
2018-04-14T06:37:52.318Z,1001.05
2018-04-14T06:38:58.564Z,1001.04
2018-04-14T06:40:04.785Z,1001.04
2018-04-14T06:41:11.021Z,1001.04
2018-04-14T06:42:17.258Z,1001.04
2018-04-14T06:43:23.519Z,1001.03
2018-04-14T06:44:29.729Z,1001.02
2018-04-14T06:45:35.965Z,1001.03
2018-04-14T06:46:42.175Z,1001.03
2018-04-14T06:47:48.433Z,1001.09
2018-04-14T06:48:54.668Z,1001.07
2018-04-14T06:50:00.894Z,1001.09
2018-04-14T06:51:07.126Z,1001.08
2018-04-14T06:52:13.403Z,1001.08
2018-04-14T06:53:19.597Z,1001.07
2018-04-14T06:54:25.877Z,1001.06
2018-04-14T06:55:32.106Z,1001.03
2018-04-14T06:56:38.479Z,1001.07
2018-04-14T06:57:45.613Z,1001.12
2018-04-14T06:58:51.883Z,1001.12
2018-04-14T06:59:57.121Z,1001.14
2018-04-14T07:01:03.378Z,1001.15
2018-04-14T07:02:09.627Z,1001.12
2018-04-14T07:03:16.879Z,1001.09
2018-04-14T07:04:22.206Z,1001.10
2018-04-14T07:05:28.404Z,1001.10
2018-04-14T07:06:34.670Z,1001.09
2018-04-14T07:07:40.925Z,1001.03
2018-04-14T07:08:47.232Z,1001.13
2018-04-14T07:09:53.494Z,1001.12
2018-04-14T07:10:59.758Z,1001.11
2018-04-14T07:12:06.044Z,1001.16
2018-04-14T07:13:12.330Z,1001.14
2018-04-14T07:14:18.678Z,1001.11
2018-04-14T07:15:24.931Z,1001.15
2018-04-14T07:16:31.230Z,1001.17
2018-04-14T07:17:37.537Z,1001.18
2018-04-14T07:18:43.859Z,1001.19
2018-04-14T07:19:50.120Z,1001.27
2018-04-14T07:20:55.931Z,1001.27
2018-04-14T07:22:02.751Z,1001.25
2018-04-14T07:23:09.023Z,1001.24
2018-04-14T07:24:15.405Z,1001.24
2018-04-14T07:25:22.628Z,1001.26
2018-04-14T07:26:27.949Z,1001.28
2018-04-14T07:27:34.240Z,1001.30
2018-04-14T07:28:40.590Z,1001.33
2018-04-14T07:29:46.873Z,1001.34
2018-04-14T07:30:54.192Z,1001.30
2018-04-14T07:31:59.483Z,1001.28
2018-04-14T07:33:05.387Z,1001.27
2018-04-14T07:34:12.142Z,1001.26
2018-04-14T07:35:18.432Z,1001.23
2018-04-14T07:36:24.766Z,1001.31
2018-04-14T07:37:31.112Z,1001.25
2018-04-14T07:38:37.433Z,1001.27
2018-04-14T07:39:43.768Z,1001.32
2018-04-14T07:40:50.063Z,1001.35
2018-04-14T07:41:57.403Z,1001.37
2018-04-14T07:43:02.734Z,1001.37
2018-04-14T07:44:10.075Z,1001.42
2018-04-14T07:45:15.384Z,1001.45
2018-04-14T07:46:21.718Z,1001.43
2018-04-14T07:47:28.056Z,1001.52
2018-04-14T07:48:33.872Z,1001.48
2018-04-14T07:49:40.716Z,1001.48
2018-04-14T07:50:47.033Z,1001.49
2018-04-14T07:51:53.382Z,1001.48
2018-04-14T07:52:59.716Z,1001.43
2018-04-14T07:54:06.194Z,1001.51
2018-04-14T07:55:12.396Z,1001.46
2018-04-14T07:56:18.750Z,1001.44
2018-04-14T07:57:25.087Z,1001.47
2018-04-14T07:58:31.914Z,1001.48
2018-04-14T07:59:37.823Z,1001.45
2018-04-14T08:00:45.125Z,1001.47
2018-04-14T08:01:50.499Z,1001.47
2018-04-14T08:02:56.843Z,1001.48
2018-04-14T08:04:03.412Z,1001.50
2018-04-14T08:05:09.559Z,1001.47
2018-04-14T08:06:15.979Z,1001.48
2018-04-14T08:07:22.290Z,1001.51
2018-04-14T08:08:28.655Z,1001.53
2018-04-14T08:09:35.023Z,1001.51
2018-04-14T08:10:40.878Z,1001.49
2018-04-14T08:11:47.726Z,1001.45
2018-04-14T08:12:54.149Z,1001.48
2018-04-14T08:14:00.476Z,1001.49
2018-04-14T08:15:06.818Z,1001.48
2018-04-14T08:16:13.243Z,1001.47
2018-04-14T08:17:19.573Z,1001.51
2018-04-14T08:18:26.046Z,1001.52
2018-04-14T08:19:32.301Z,1001.55
2018-04-14T08:20:38.619Z,1001.61
2018-04-14T08:21:45.024Z,1001.60
2018-04-14T08:22:51.381Z,1001.60
2018-04-14T08:23:57.732Z,1001.64
2018-04-14T08:25:04.143Z,1001.67
2018-04-14T08:26:10.504Z,1001.69
2018-04-14T08:27:16.752Z,1001.70
2018-04-14T08:28:23.100Z,1001.71
2018-04-14T08:29:29.528Z,1001.73
2018-04-14T08:30:35.811Z,1001.69
2018-04-14T08:31:42.171Z,1001.70
2018-04-14T08:32:48.047Z,1001.70
2018-04-14T08:33:54.929Z,1001.75
2018-04-14T08:35:01.265Z,1001.70
2018-04-14T08:36:07.169Z,1001.66
2018-04-14T08:37:14.018Z,1001.65
2018-04-14T08:38:20.399Z,1001.72
2018-04-14T08:39:26.820Z,1001.69
2018-04-14T08:40:33.182Z,1001.70
2018-04-14T08:41:39.570Z,1001.72
2018-04-14T08:42:45.974Z,1001.76
2018-04-14T08:43:52.360Z,1001.74
2018-04-14T08:44:58.807Z,1001.75
2018-04-14T08:46:05.208Z,1001.74
2018-04-14T08:47:11.104Z,1001.75
2018-04-14T08:48:18.012Z,1001.75
2018-04-14T08:49:24.434Z,1001.75
2018-04-14T08:50:30.834Z,1001.74
2018-04-14T08:51:37.251Z,1001.70
2018-04-14T08:52:43.164Z,1001.74
2018-04-14T08:53:50.065Z,1001.77
2018-04-14T08:54:56.522Z,1001.73
2018-04-14T08:56:02.886Z,1001.78
2018-04-14T08:57:09.381Z,1001.79
2018-04-14T08:58:15.705Z,1001.77
2018-04-14T08:59:22.137Z,1001.78
2018-04-14T09:00:28.027Z,1001.74
2018-04-14T09:01:34.935Z,1001.73
2018-04-14T09:02:41.375Z,1001.72
2018-04-14T09:03:47.243Z,1001.74
2018-04-14T09:04:54.167Z,1001.77
2018-04-14T09:06:00.585Z,1001.75
2018-04-14T09:07:06.965Z,1001.76
2018-04-14T09:08:13.376Z,1001.74
2018-04-14T09:09:19.805Z,1001.77
2018-04-14T09:10:26.187Z,1001.78
2018-04-14T09:11:32.607Z,1001.79
2018-04-14T09:12:39.999Z,1001.80
2018-04-14T09:13:44.982Z,1001.78
2018-04-14T09:14:51.848Z,1001.77
2018-04-14T09:15:58.223Z,1001.78
2018-04-14T09:17:05.630Z,1001.76
2018-04-14T09:18:10.539Z,1001.78
2018-04-14T09:19:17.444Z,1001.80
2018-04-14T09:20:23.807Z,1001.82
2018-04-14T09:21:30.204Z,1001.83
2018-04-14T09:22:36.598Z,1001.75
2018-04-14T09:23:42.981Z,1001.82
2018-04-14T09:24:49.399Z,1001.80
2018-04-14T09:25:55.764Z,1001.77
2018-04-14T09:27:02.162Z,1001.76
2018-04-14T09:28:08.553Z,1001.75
2018-04-14T09:29:14.958Z,1001.76
2018-04-14T09:30:21.378Z,1001.76
2018-04-14T09:31:27.705Z,1001.76
2018-04-14T09:32:34.094Z,1001.77
2018-04-14T09:33:40.492Z,1001.77
2018-04-14T09:34:46.907Z,1001.73
2018-04-14T09:35:53.395Z,1001.77
2018-04-14T09:36:59.733Z,1001.71
2018-04-14T09:38:05.579Z,1001.75
2018-04-14T09:39:12.502Z,1001.77
2018-04-14T09:40:18.863Z,1001.68
2018-04-14T09:41:25.278Z,1001.69
2018-04-14T09:42:31.669Z,1001.71
2018-04-14T09:43:38.046Z,1001.72
2018-04-14T09:44:44.486Z,1001.73
2018-04-14T09:45:50.878Z,1001.71
2018-04-14T09:46:57.233Z,1001.70
2018-04-14T09:48:04.618Z,1001.67
2018-04-14T09:49:10.056Z,1001.71
2018-04-14T09:50:16.463Z,1001.73
2018-04-14T09:51:22.827Z,1001.72
2018-04-14T09:52:29.221Z,1001.77
2018-04-14T09:53:35.632Z,1001.73
2018-04-14T09:54:41.543Z,1001.70
2018-04-14T09:55:48.432Z,1001.70
2018-04-14T09:56:54.837Z,1001.74
2018-04-14T09:58:01.244Z,1001.73
2018-04-14T09:59:07.632Z,1001.76
2018-04-14T10:00:14.074Z,1001.77
2018-04-14T10:01:19.945Z,1001.74
2018-04-14T10:02:26.363Z,1001.70
2018-04-14T10:03:33.260Z,1001.70
2018-04-14T10:04:39.191Z,1001.75
2018-04-14T10:05:46.076Z,1001.79
2018-04-14T10:06:52.499Z,1001.74
2018-04-14T10:07:58.896Z,1001.73
2018-04-14T10:09:05.378Z,1001.75
2018-04-14T10:10:11.731Z,1001.72
2018-04-14T10:11:18.129Z,1001.67
2018-04-14T10:12:24.541Z,1001.66
2018-04-14T10:13:30.960Z,1001.68
2018-04-14T10:14:37.401Z,1001.64
2018-04-14T10:15:43.791Z,1001.61
2018-04-14T10:16:49.721Z,1001.63
2018-04-14T10:17:56.626Z,1001.58
2018-04-14T10:19:03.058Z,1001.52
2018-04-14T10:20:09.482Z,1001.51
2018-04-14T10:21:15.885Z,1001.55
2018-04-14T10:22:22.315Z,1001.54
2018-04-14T10:23:28.737Z,1001.55
2018-04-14T10:24:34.688Z,1001.51
2018-04-14T10:25:41.580Z,1001.42
2018-04-14T10:26:48.006Z,1001.44
2018-04-14T10:27:53.939Z,1001.40
2018-04-14T10:29:00.368Z,1001.43
2018-04-14T10:30:07.403Z,1001.42
2018-04-14T10:31:13.723Z,1001.41
2018-04-14T10:32:20.206Z,1001.38
2018-04-14T10:33:26.594Z,1001.37
2018-04-14T10:34:33.032Z,1001.36
2018-04-14T10:35:38.946Z,1001.39
2018-04-14T10:36:45.883Z,1001.37
2018-04-14T10:37:51.913Z,1001.34
2018-04-14T10:38:58.752Z,1001.35
2018-04-14T10:40:05.203Z,1001.34
2018-04-14T10:41:11.621Z,1001.37
2018-04-14T10:42:17.569Z,1001.32
2018-04-14T10:43:24.504Z,1001.33
2018-04-14T10:44:30.948Z,1001.33
2018-04-14T10:45:37.371Z,1001.31
2018-04-14T10:46:43.832Z,1001.33
2018-04-14T10:47:50.264Z,1001.28
2018-04-14T10:48:56.691Z,1001.32
2018-04-14T10:50:03.202Z,1001.29
2018-04-14T10:51:09.602Z,1001.28
2018-04-14T10:52:16.034Z,1001.23
2018-04-14T10:53:22.484Z,1001.20
2018-04-14T10:54:28.967Z,1001.18
2018-04-14T10:55:35.404Z,1001.18
2018-04-14T10:56:41.851Z,1001.19
2018-04-14T10:57:48.317Z,1001.18
2018-04-14T10:58:54.776Z,1001.26
2018-04-14T11:00:01.259Z,1001.18
2018-04-14T11:01:07.706Z,1001.24
2018-04-14T11:02:14.157Z,1001.16
2018-04-14T11:03:20.649Z,1001.20
2018-04-14T11:04:27.128Z,1001.22
2018-04-14T11:05:33.074Z,1001.24
2018-04-14T11:06:39.555Z,1001.21
2018-04-14T11:07:46.022Z,1001.23
2018-04-14T11:08:52.992Z,1001.21
2018-04-14T11:09:59.499Z,1001.26
2018-04-14T11:11:05.970Z,1001.20
2018-04-14T11:12:12.481Z,1001.20
2018-04-14T11:13:18.937Z,1001.25
2018-04-14T11:14:24.929Z,1001.27
2018-04-14T11:15:31.451Z,1001.26
2018-04-14T11:16:38.420Z,1001.19
2018-04-14T11:17:44.932Z,1001.19
2018-04-14T11:18:51.440Z,1001.11
2018-04-14T11:19:57.997Z,1001.16
2018-04-14T11:21:04.561Z,1001.18
2018-04-14T11:22:11.199Z,1001.17
2018-04-14T11:23:17.382Z,1001.21
2018-04-14T11:24:24.590Z,1001.14
2018-04-14T11:25:30.883Z,1001.19
2018-04-14T11:26:38.151Z,1001.17
2018-04-14T11:27:44.990Z,1001.17
2018-04-14T11:28:51.373Z,1001.16
2018-04-14T11:29:58.276Z,1001.12
2018-04-14T11:31:05.667Z,1001.14
2018-04-14T11:32:12.118Z,1001.13
2018-04-14T11:33:19.573Z,1001.07
2018-04-14T11:34:26.546Z,1001.07
2018-04-14T11:35:33.067Z,1001.11
2018-04-14T11:36:40.547Z,1001.03
2018-04-14T11:37:47.079Z,1001.08
2018-04-14T11:38:54.620Z,1001.06
2018-04-14T11:40:01.204Z,1001.05
2018-04-14T11:41:08.749Z,1001.07
2018-04-14T11:42:15.832Z,1001.05
2018-04-14T11:43:22.995Z,1001.00
2018-04-14T11:44:30.091Z,1001.00
2018-04-14T11:45:36.726Z,1001.01
2018-04-14T11:46:44.355Z,1001.00
2018-04-14T11:47:51.511Z,1000.99
2018-04-14T11:48:58.183Z,1000.94
2018-04-14T11:50:05.882Z,1001.00
2018-04-14T11:51:13.066Z,1001.01
2018-04-14T11:52:20.266Z,1000.94
2018-04-14T11:53:26.969Z,1000.92
2018-04-14T11:54:34.670Z,1000.91
2018-04-14T11:55:41.932Z,1000.87
2018-04-14T11:56:49.146Z,1000.93
2018-04-14T11:57:55.885Z,1000.92
2018-04-14T11:59:03.136Z,1000.85
2018-04-14T12:00:10.406Z,1000.85
2018-04-14T12:01:18.138Z,1000.83
2018-04-14T12:02:25.452Z,1000.75
2018-04-14T12:03:32.177Z,1000.81
2018-04-14T12:04:39.479Z,1000.81
2018-04-14T12:05:47.246Z,1000.81
2018-04-14T12:06:54.503Z,1000.78
2018-04-14T12:08:01.307Z,1000.81
2018-04-14T12:09:09.064Z,1000.81
2018-04-14T12:10:16.380Z,1000.76
2018-04-14T12:11:23.680Z,1000.77
2018-04-14T12:12:30.468Z,1000.78
2018-04-14T12:13:37.782Z,1000.78
2018-04-14T12:14:45.101Z,1000.76
2018-04-14T12:15:52.908Z,1000.76
2018-04-14T12:16:59.769Z,1000.76
2018-04-14T12:18:08.622Z,1000.77
2018-04-14T12:19:14.412Z,1000.79
2018-04-14T12:20:22.266Z,1000.77
2018-04-14T12:21:29.599Z,1000.79
2018-04-14T12:22:36.951Z,1000.79
2018-04-14T12:23:44.302Z,1000.81
2018-04-14T12:24:51.618Z,1000.85
2018-04-14T12:25:58.465Z,1000.82
2018-04-14T12:27:06.304Z,1000.85
2018-04-14T12:28:13.710Z,1000.83
2018-04-14T12:29:20.983Z,1000.78
2018-04-14T12:30:28.332Z,1000.78
2018-04-14T12:31:35.174Z,1000.77
2018-04-14T12:32:42.532Z,1000.79
2018-04-14T12:33:50.413Z,1000.71
2018-04-14T12:34:57.754Z,1000.74
2018-04-14T12:36:05.107Z,1000.78
2018-04-14T12:37:11.991Z,1000.71
2018-04-14T12:38:19.370Z,1000.81
2018-04-14T12:39:27.211Z,1000.73
2018-04-14T12:40:34.091Z,1000.72
2018-04-14T12:41:41.959Z,1000.70
2018-04-14T12:42:48.836Z,1000.69
2018-04-14T12:43:56.730Z,1000.69
2018-04-14T12:45:03.567Z,1000.66
2018-04-14T12:46:10.928Z,1000.67
2018-04-14T12:47:18.804Z,1000.71
2018-04-14T12:48:25.667Z,1000.70
2018-04-14T12:49:33.070Z,1000.64
2018-04-14T12:50:40.913Z,1000.63
2018-04-14T12:51:47.800Z,1000.69
2018-04-14T12:52:55.704Z,1000.55
2018-04-14T12:54:03.081Z,1000.65
2018-04-14T12:55:10.520Z,1000.56
2018-04-14T12:56:18.374Z,1000.60
2018-04-14T12:57:25.267Z,1000.62
2018-04-14T12:58:32.183Z,1000.61
2018-04-14T12:59:39.627Z,1000.60
2018-04-14T13:00:47.044Z,1000.62
2018-04-14T13:01:54.955Z,1000.59
2018-04-14T13:03:01.901Z,1000.60
2018-04-14T13:04:09.836Z,1000.67
2018-04-14T13:05:17.400Z,1000.59
2018-04-14T13:06:24.289Z,1000.58
2018-04-14T13:07:31.768Z,1000.59
2018-04-14T13:08:39.736Z,1000.57
2018-04-14T13:09:47.261Z,1000.64
2018-04-14T13:10:54.771Z,1000.57
2018-04-14T13:12:01.739Z,1000.56
2018-04-14T13:13:09.343Z,1000.56
2018-04-14T13:14:16.737Z,1000.64
2018-04-14T13:15:24.281Z,1000.59
2018-04-14T13:16:32.244Z,1000.58
2018-04-14T13:17:39.370Z,1000.59
2018-04-14T13:18:46.791Z,1000.54
2018-04-14T13:19:54.730Z,1000.59
2018-04-14T13:21:02.255Z,1000.67
2018-04-14T13:22:10.673Z,1000.59
2018-04-14T13:23:17.143Z,1000.65
2018-04-14T13:24:24.548Z,1000.65
2018-04-14T13:25:31.554Z,1000.64
2018-04-14T13:26:39.431Z,1000.63
2018-04-14T13:27:46.280Z,1000.59
2018-04-14T13:28:53.672Z,1000.67
2018-04-14T13:30:01.590Z,1000.63
2018-04-14T13:31:08.474Z,1000.62
2018-04-14T13:32:16.314Z,1000.55
2018-04-14T13:33:23.258Z,1000.45